sensor_id;sensor_type;location;lat;lon;timestamp;P1;durP1;ratioP1;P2;durP2;ratioP2
55003;SDS011;40900;52.710;6.438;2023-08-17T00:01:37;7.55;;;2.15;;
55003;SDS011;40900;52.710;6.438;2023-08-17T00:04:03;8.13;;;2.50;;
55003;SDS011;40900;52.710;6.438;2023-08-17T00:06:29;9.50;;;2.40;;
55003;SDS011;40900;52.710;6.438;2023-08-17T00:08:55;7.57;;;2.63;;
55003;SDS011;40900;52.710;6.438;2023-08-17T00:11:21;8.13;;;2.63;;
55003;SDS011;40900;52.710;6.438;2023-08-17T00:13:46;7.38;;;2.30;;
55003;SDS011;40900;52.710;6.438;2023-08-17T00:16:12;9.30;;;2.30;;
55003;SDS011;40900;52.710;6.438;2023-08-17T00:18:38;6.03;;;2.35;;
55003;SDS011;40900;52.710;6.438;2023-08-17T00:21:04;8.63;;;2.33;;
55003;SDS011;40900;52.710;6.438;2023-08-17T00:23:29;6.70;;;2.20;;
55003;SDS011;40900;52.710;6.438;2023-08-17T00:25:55;7.00;;;2.20;;
55003;SDS011;40900;52.710;6.438;2023-08-17T00:28:21;7.13;;;2.25;;
55003;SDS011;40900;52.710;6.438;2023-08-17T00:30:46;6.20;;;2.40;;
55003;SDS011;40900;52.710;6.438;2023-08-17T00:33:12;5.82;;;2.22;;
55003;SDS011;40900;52.710;6.438;2023-08-17T00:35:38;7.25;;;2.53;;
55003;SDS011;40900;52.710;6.438;2023-08-17T00:38:04;7.35;;;2.30;;
55003;SDS011;40900;52.710;6.438;2023-08-17T00:40:29;5.65;;;2.05;;
55003;SDS011;40900;52.710;6.438;2023-08-17T00:42:55;5.60;;;1.92;;
55003;SDS011;40900;52.710;6.438;2023-08-17T00:45:21;7.28;;;2.55;;
55003;SDS011;40900;52.710;6.438;2023-08-17T00:47:48;5.53;;;2.35;;
55003;SDS011;40900;52.710;6.438;2023-08-17T00:50:14;7.63;;;2.40;;
55003;SDS011;40900;52.710;6.438;2023-08-17T00:52:40;9.38;;;2.60;;
55003;SDS011;40900;52.710;6.438;2023-08-17T00:55:07;7.15;;;2.40;;
55003;SDS011;40900;52.710;6.438;2023-08-17T00:57:34;8.65;;;2.70;;
55003;SDS011;40900;52.710;6.438;2023-08-17T01:00:01;7.00;;;2.30;;
55003;SDS011;40900;52.710;6.438;2023-08-17T01:02:29;8.23;;;2.50;;
55003;SDS011;40900;52.710;6.438;2023-08-17T01:04:55;7.82;;;2.50;;
55003;SDS011;40900;52.710;6.438;2023-08-17T01:07:21;7.85;;;2.70;;
55003;SDS011;40900;52.710;6.438;2023-08-17T01:09:47;10.52;;;2.78;;
55003;SDS011;40900;52.710;6.438;2023-08-17T01:12:17;6.43;;;2.45;;
55003;SDS011;40900;52.710;6.438;2023-08-17T01:14:55;8.07;;;2.40;;
55003;SDS011;40900;52.710;6.438;2023-08-17T01:17:29;10.27;;;3.38;;
55003;SDS011;40900;52.710;6.438;2023-08-17T01:20:19;6.95;;;2.60;;
55003;SDS011;40900;52.710;6.438;2023-08-17T01:22:48;9.55;;;2.83;;
55003;SDS011;40900;52.710;6.438;2023-08-17T01:25:15;8.30;;;2.90;;
55003;SDS011;40900;52.710;6.438;2023-08-17T01:27:42;7.88;;;2.67;;
55003;SDS011;40900;52.710;6.438;2023-08-17T01:30:10;7.68;;;2.80;;
55003;SDS011;40900;52.710;6.438;2023-08-17T01:32:39;8.05;;;2.80;;
55003;SDS011;40900;52.710;6.438;2023-08-17T01:37:45;9.15;;;2.92;;
55003;SDS011;40900;52.710;6.438;2023-08-17T01:40:11;8.70;;;2.70;;
55003;SDS011;40900;52.710;6.438;2023-08-17T01:42:38;12.35;;;2.67;;
55003;SDS011;40900;52.710;6.438;2023-08-17T01:45:05;5.47;;;2.30;;
55003;SDS011;40900;52.710;6.438;2023-08-17T01:47:31;7.13;;;2.40;;
55003;SDS011;40900;52.710;6.438;2023-08-17T01:49:57;7.15;;;2.47;;
55003;SDS011;40900;52.710;6.438;2023-08-17T01:52:27;7.35;;;2.25;;
55003;SDS011;40900;52.710;6.438;2023-08-17T01:54:53;6.93;;;2.50;;
55003;SDS011;40900;52.710;6.438;2023-08-17T01:57:19;5.50;;;2.53;;
55003;SDS011;40900;52.710;6.438;2023-08-17T01:59:45;7.57;;;2.50;;
55003;SDS011;40900;52.710;6.438;2023-08-17T02:02:11;8.63;;;2.85;;
55003;SDS011;40900;52.710;6.438;2023-08-17T02:04:39;7.88;;;2.67;;
55003;SDS011;40900;52.710;6.438;2023-08-17T02:07:05;6.43;;;2.28;;
55003;SDS011;40900;52.710;6.438;2023-08-17T02:09:31;6.30;;;2.60;;
55003;SDS011;40900;52.710;6.438;2023-08-17T02:11:57;7.18;;;2.40;;
55003;SDS011;40900;52.710;6.438;2023-08-17T02:14:22;9.15;;;3.03;;
55003;SDS011;40900;52.710;6.438;2023-08-17T02:16:48;6.88;;;2.67;;
55003;SDS011;40900;52.710;6.438;2023-08-17T02:19:14;10.57;;;2.92;;
55003;SDS011;40900;52.710;6.438;2023-08-17T02:21:39;7.10;;;2.78;;
55003;SDS011;40900;52.710;6.438;2023-08-17T02:24:05;6.15;;;2.42;;
55003;SDS011;40900;52.710;6.438;2023-08-17T02:26:31;8.00;;;2.83;;
55003;SDS011;40900;52.710;6.438;2023-08-17T02:28:57;14.70;;;2.53;;
55003;SDS011;40900;52.710;6.438;2023-08-17T02:31:23;8.23;;;2.38;;
55003;SDS011;40900;52.710;6.438;2023-08-17T02:33:48;7.53;;;2.60;;
55003;SDS011;40900;52.710;6.438;2023-08-17T02:36:14;6.00;;;2.65;;
55003;SDS011;40900;52.710;6.438;2023-08-17T02:38:40;6.63;;;2.75;;
55003;SDS011;40900;52.710;6.438;2023-08-17T02:41:05;5.57;;;2.55;;
55003;SDS011;40900;52.710;6.438;2023-08-17T02:43:31;6.22;;;2.33;;
55003;SDS011;40900;52.710;6.438;2023-08-17T02:45:57;9.68;;;2.97;;
55003;SDS011;40900;52.710;6.438;2023-08-17T02:48:24;9.48;;;2.30;;
55003;SDS011;40900;52.710;6.438;2023-08-17T02:50:50;6.47;;;2.10;;
55003;SDS011;40900;52.710;6.438;2023-08-17T02:53:16;7.72;;;2.70;;
55003;SDS011;40900;52.710;6.438;2023-08-17T02:55:41;6.68;;;2.40;;
55003;SDS011;40900;52.710;6.438;2023-08-17T02:58:07;5.07;;;2.35;;
55003;SDS011;40900;52.710;6.438;2023-08-17T03:00:33;6.95;;;2.55;;
55003;SDS011;40900;52.710;6.438;2023-08-17T03:02:58;7.25;;;2.38;;
55003;SDS011;40900;52.710;6.438;2023-08-17T03:05:24;8.88;;;2.88;;
55003;SDS011;40900;52.710;6.438;2023-08-17T03:07:50;8.60;;;2.50;;
55003;SDS011;40900;52.710;6.438;2023-08-17T03:10:15;4.93;;;1.90;;
55003;SDS011;40900;52.710;6.438;2023-08-17T03:12:41;10.00;;;2.53;;
55003;SDS011;40900;52.710;6.438;2023-08-17T03:15:08;6.18;;;2.60;;
55003;SDS011;40900;52.710;6.438;2023-08-17T03:17:33;5.72;;;2.63;;
55003;SDS011;40900;52.710;6.438;2023-08-17T03:19:59;9.30;;;3.03;;
55003;SDS011;40900;52.710;6.438;2023-08-17T03:22:25;7.10;;;2.65;;
55003;SDS011;40900;52.710;6.438;2023-08-17T03:24:51;7.28;;;2.70;;
55003;SDS011;40900;52.710;6.438;2023-08-17T03:27:19;8.32;;;2.40;;
55003;SDS011;40900;52.710;6.438;2023-08-17T03:29:45;7.28;;;2.70;;
55003;SDS011;40900;52.710;6.438;2023-08-17T03:32:11;6.97;;;2.78;;
55003;SDS011;40900;52.710;6.438;2023-08-17T03:34:36;7.85;;;2.60;;
55003;SDS011;40900;52.710;6.438;2023-08-17T03:37:03;11.32;;;2.85;;
55003;SDS011;40900;52.710;6.438;2023-08-17T03:39:29;9.65;;;2.83;;
55003;SDS011;40900;52.710;6.438;2023-08-17T03:41:56;9.65;;;3.08;;
55003;SDS011;40900;52.710;6.438;2023-08-17T03:44:21;11.48;;;2.80;;
55003;SDS011;40900;52.710;6.438;2023-08-17T03:46:47;8.65;;;3.05;;
55003;SDS011;40900;52.710;6.438;2023-08-17T03:49:13;7.65;;;3.00;;
55003;SDS011;40900;52.710;6.438;2023-08-17T03:51:39;8.73;;;3.17;;
55003;SDS011;40900;52.710;6.438;2023-08-17T03:54:05;7.03;;;2.50;;
55003;SDS011;40900;52.710;6.438;2023-08-17T03:56:31;9.25;;;3.47;;
55003;SDS011;40900;52.710;6.438;2023-08-17T03:58:56;7.57;;;3.47;;
55003;SDS011;40900;52.710;6.438;2023-08-17T04:01:22;8.60;;;3.10;;
55003;SDS011;40900;52.710;6.438;2023-08-17T04:03:48;10.10;;;3.67;;
55003;SDS011;40900;52.710;6.438;2023-08-17T04:06:13;8.40;;;3.42;;
55003;SDS011;40900;52.710;6.438;2023-08-17T04:08:39;8.07;;;3.60;;
55003;SDS011;40900;52.710;6.438;2023-08-17T04:11:05;9.60;;;3.00;;
55003;SDS011;40900;52.710;6.438;2023-08-17T04:13:31;9.05;;;3.67;;
55003;SDS011;40900;52.710;6.438;2023-08-17T04:15:57;8.93;;;3.53;;
55003;SDS011;40900;52.710;6.438;2023-08-17T04:18:23;8.93;;;3.25;;
55003;SDS011;40900;52.710;6.438;2023-08-17T04:20:48;9.40;;;3.30;;
55003;SDS011;40900;52.710;6.438;2023-08-17T04:23:15;10.35;;;3.55;;
55003;SDS011;40900;52.710;6.438;2023-08-17T04:25:41;9.18;;;3.65;;
55003;SDS011;40900;52.710;6.438;2023-08-17T04:28:07;13.63;;;3.78;;
55003;SDS011;40900;52.710;6.438;2023-08-17T04:30:32;4.90;;;3.30;;
55003;SDS011;40900;52.710;6.438;2023-08-17T04:32:58;6.97;;;3.60;;
55003;SDS011;40900;52.710;6.438;2023-08-17T04:35:24;5.93;;;3.45;;
55003;SDS011;40900;52.710;6.438;2023-08-17T04:37:50;11.38;;;3.72;;
55003;SDS011;40900;52.710;6.438;2023-08-17T04:40:16;10.63;;;3.83;;
55003;SDS011;40900;52.710;6.438;2023-08-17T04:42:41;11.75;;;3.67;;
55003;SDS011;40900;52.710;6.438;2023-08-17T04:45:07;8.90;;;3.78;;
55003;SDS011;40900;52.710;6.438;2023-08-17T04:47:33;8.00;;;3.22;;
55003;SDS011;40900;52.710;6.438;2023-08-17T04:49:59;6.65;;;3.40;;
55003;SDS011;40900;52.710;6.438;2023-08-17T04:52:24;9.70;;;3.38;;
55003;SDS011;40900;52.710;6.438;2023-08-17T04:54:50;9.20;;;3.42;;
55003;SDS011;40900;52.710;6.438;2023-08-17T04:57:16;12.40;;;4.15;;
55003;SDS011;40900;52.710;6.438;2023-08-17T04:59:42;7.68;;;3.58;;
55003;SDS011;40900;52.710;6.438;2023-08-17T05:02:08;11.27;;;4.15;;
55003;SDS011;40900;52.710;6.438;2023-08-17T05:04:34;8.65;;;4.10;;
55003;SDS011;40900;52.710;6.438;2023-08-17T05:07:00;9.45;;;3.72;;
55003;SDS011;40900;52.710;6.438;2023-08-17T05:09:26;12.82;;;4.10;;
55003;SDS011;40900;52.710;6.438;2023-08-17T05:11:52;8.18;;;3.80;;
55003;SDS011;40900;52.710;6.438;2023-08-17T05:14:18;11.93;;;4.05;;
55003;SDS011;40900;52.710;6.438;2023-08-17T05:16:44;11.43;;;4.13;;
55003;SDS011;40900;52.710;6.438;2023-08-17T05:19:09;10.45;;;3.72;;
55003;SDS011;40900;52.710;6.438;2023-08-17T05:21:35;10.55;;;3.67;;
55003;SDS011;40900;52.710;6.438;2023-08-17T05:24:01;6.53;;;3.28;;
55003;SDS011;40900;52.710;6.438;2023-08-17T05:26:27;9.93;;;4.13;;
55003;SDS011;40900;52.710;6.438;2023-08-17T05:28:53;9.35;;;3.58;;
55003;SDS011;40900;52.710;6.438;2023-08-17T05:31:18;8.93;;;3.47;;
55003;SDS011;40900;52.710;6.438;2023-08-17T05:33:44;10.65;;;3.30;;
55003;SDS011;40900;52.710;6.438;2023-08-17T05:36:10;6.53;;;3.50;;
55003;SDS011;40900;52.710;6.438;2023-08-17T05:38:36;9.02;;;3.33;;
55003;SDS011;40900;52.710;6.438;2023-08-17T05:41:02;9.40;;;3.63;;
55003;SDS011;40900;52.710;6.438;2023-08-17T05:43:27;12.32;;;4.10;;
55003;SDS011;40900;52.710;6.438;2023-08-17T05:45:53;13.85;;;3.35;;
55003;SDS011;40900;52.710;6.438;2023-08-17T05:48:19;11.73;;;3.90;;
55003;SDS011;40900;52.710;6.438;2023-08-17T05:50:48;11.00;;;3.65;;
55003;SDS011;40900;52.710;6.438;2023-08-17T05:53:14;17.30;;;4.20;;
55003;SDS011;40900;52.710;6.438;2023-08-17T05:55:39;9.60;;;3.58;;
55003;SDS011;40900;52.710;6.438;2023-08-17T05:58:05;9.93;;;3.45;;
55003;SDS011;40900;52.710;6.438;2023-08-17T06:00:31;12.20;;;4.35;;
55003;SDS011;40900;52.710;6.438;2023-08-17T06:02:56;9.20;;;3.38;;
55003;SDS011;40900;52.710;6.438;2023-08-17T06:05:26;9.70;;;3.30;;
55003;SDS011;40900;52.710;6.438;2023-08-17T06:07:55;7.72;;;3.47;;
55003;SDS011;40900;52.710;6.438;2023-08-17T06:10:22;10.57;;;3.25;;
55003;SDS011;40900;52.710;6.438;2023-08-17T06:12:55;8.68;;;3.20;;
55003;SDS011;40900;52.710;6.438;2023-08-17T06:15:21;8.48;;;3.17;;
55003;SDS011;40900;52.710;6.438;2023-08-17T06:17:48;9.60;;;3.28;;
55003;SDS011;40900;52.710;6.438;2023-08-17T06:20:17;10.68;;;3.15;;
55003;SDS011;40900;52.710;6.438;2023-08-17T06:22:43;9.27;;;3.00;;
55003;SDS011;40900;52.710;6.438;2023-08-17T06:25:09;11.38;;;3.30;;
55003;SDS011;40900;52.710;6.438;2023-08-17T06:27:36;7.35;;;2.90;;
55003;SDS011;40900;52.710;6.438;2023-08-17T06:30:05;16.38;;;3.45;;
55003;SDS011;40900;52.710;6.438;2023-08-17T06:32:31;9.25;;;3.00;;
55003;SDS011;40900;52.710;6.438;2023-08-17T06:34:57;12.90;;;3.17;;
55003;SDS011;40900;52.710;6.438;2023-08-17T06:37:23;8.77;;;3.20;;
55003;SDS011;40900;52.710;6.438;2023-08-17T06:39:49;10.60;;;3.20;;
55003;SDS011;40900;52.710;6.438;2023-08-17T06:42:14;11.15;;;2.78;;
55003;SDS011;40900;52.710;6.438;2023-08-17T06:44:40;13.55;;;3.08;;
55003;SDS011;40900;52.710;6.438;2023-08-17T06:47:06;7.55;;;2.53;;
55003;SDS011;40900;52.710;6.438;2023-08-17T06:49:32;6.88;;;2.50;;
55003;SDS011;40900;52.710;6.438;2023-08-17T06:51:58;8.45;;;2.30;;
55003;SDS011;40900;52.710;6.438;2023-08-17T06:54:23;8.30;;;2.53;;
55003;SDS011;40900;52.710;6.438;2023-08-17T06:56:49;12.65;;;2.47;;
55003;SDS011;40900;52.710;6.438;2023-08-17T06:59:15;8.43;;;2.38;;
55003;SDS011;40900;52.710;6.438;2023-08-17T07:01:40;7.18;;;2.65;;
55003;SDS011;40900;52.710;6.438;2023-08-17T07:04:06;8.48;;;2.58;;
55003;SDS011;40900;52.710;6.438;2023-08-17T07:06:32;12.80;;;2.60;;
55003;SDS011;40900;52.710;6.438;2023-08-17T07:08:59;8.85;;;2.25;;
55003;SDS011;40900;52.710;6.438;2023-08-17T07:11:25;7.75;;;1.92;;
55003;SDS011;40900;52.710;6.438;2023-08-17T07:13:51;9.93;;;1.88;;
55003;SDS011;40900;52.710;6.438;2023-08-17T07:16:16;9.20;;;2.33;;
55003;SDS011;40900;52.710;6.438;2023-08-17T07:18:42;4.18;;;1.70;;
55003;SDS011;40900;52.710;6.438;2023-08-17T07:21:08;6.43;;;2.00;;
55003;SDS011;40900;52.710;6.438;2023-08-17T07:23:33;7.97;;;2.10;;
55003;SDS011;40900;52.710;6.438;2023-08-17T07:25:59;6.30;;;2.17;;
55003;SDS011;40900;52.710;6.438;2023-08-17T07:28:25;7.68;;;2.00;;
55003;SDS011;40900;52.710;6.438;2023-08-17T07:30:51;8.95;;;2.47;;
55003;SDS011;40900;52.710;6.438;2023-08-17T07:33:16;7.10;;;2.13;;
55003;SDS011;40900;52.710;6.438;2023-08-17T07:35:42;7.47;;;1.95;;
55003;SDS011;40900;52.710;6.438;2023-08-17T07:38:08;7.80;;;2.10;;
55003;SDS011;40900;52.710;6.438;2023-08-17T07:40:33;7.88;;;2.30;;
55003;SDS011;40900;52.710;6.438;2023-08-17T07:42:59;6.50;;;2.00;;
55003;SDS011;40900;52.710;6.438;2023-08-17T07:45:26;5.50;;;1.92;;
55003;SDS011;40900;52.710;6.438;2023-08-17T07:47:52;8.25;;;2.38;;
55003;SDS011;40900;52.710;6.438;2023-08-17T07:50:18;7.18;;;1.95;;
55003;SDS011;40900;52.710;6.438;2023-08-17T07:52:43;6.10;;;1.92;;
55003;SDS011;40900;52.710;6.438;2023-08-17T07:55:09;4.97;;;1.80;;
55003;SDS011;40900;52.710;6.438;2023-08-17T07:57:35;6.65;;;1.90;;
55003;SDS011;40900;52.710;6.438;2023-08-17T08:00:00;6.65;;;1.80;;
55003;SDS011;40900;52.710;6.438;2023-08-17T08:02:26;7.85;;;1.73;;
55003;SDS011;40900;52.710;6.438;2023-08-17T08:04:52;9.55;;;1.92;;
55003;SDS011;40900;52.710;6.438;2023-08-17T08:07:17;8.18;;;1.77;;
55003;SDS011;40900;52.710;6.438;2023-08-17T08:09:43;7.45;;;1.70;;
55003;SDS011;40900;52.710;6.438;2023-08-17T08:12:09;7.95;;;1.80;;
55003;SDS011;40900;52.710;6.438;2023-08-17T08:14:35;9.85;;;1.88;;
55003;SDS011;40900;52.710;6.438;2023-08-17T08:17:00;6.38;;;1.58;;
55003;SDS011;40900;52.710;6.438;2023-08-17T08:19:26;6.97;;;1.90;;
55003;SDS011;40900;52.710;6.438;2023-08-17T08:21:52;7.35;;;2.08;;
55003;SDS011;40900;52.710;6.438;2023-08-17T08:24:17;6.68;;;1.67;;
55003;SDS011;40900;52.710;6.438;2023-08-17T08:26:43;7.38;;;1.92;;
55003;SDS011;40900;52.710;6.438;2023-08-17T08:29:09;5.03;;;1.73;;
55003;SDS011;40900;52.710;6.438;2023-08-17T08:31:34;6.40;;;1.80;;
55003;SDS011;40900;52.710;6.438;2023-08-17T08:34:00;3.85;;;1.63;;
55003;SDS011;40900;52.710;6.438;2023-08-17T08:36:26;7.63;;;1.80;;
55003;SDS011;40900;52.710;6.438;2023-08-17T08:38:51;10.65;;;1.90;;
55003;SDS011;40900;52.710;6.438;2023-08-17T08:41:17;10.88;;;2.25;;
55003;SDS011;40900;52.710;6.438;2023-08-17T08:43:44;3.80;;;1.67;;
55003;SDS011;40900;52.710;6.438;2023-08-17T08:46:10;8.40;;;1.70;;
55003;SDS011;40900;52.710;6.438;2023-08-17T08:48:37;9.65;;;2.25;;
55003;SDS011;40900;52.710;6.438;2023-08-17T08:51:05;8.65;;;1.67;;
55003;SDS011;40900;52.710;6.438;2023-08-17T08:53:37;9.88;;;1.90;;
55003;SDS011;40900;52.710;6.438;2023-08-17T08:56:04;6.70;;;1.83;;
55003;SDS011;40900;52.710;6.438;2023-08-17T08:58:36;4.45;;;1.60;;
55003;SDS011;40900;52.710;6.438;2023-08-17T09:01:03;6.70;;;1.85;;
55003;SDS011;40900;52.710;6.438;2023-08-17T09:03:29;8.90;;;2.15;;
55003;SDS011;40900;52.710;6.438;2023-08-17T09:05:57;3.40;;;1.70;;
55003;SDS011;40900;52.710;6.438;2023-08-17T09:08:25;4.55;;;1.73;;
55003;SDS011;40900;52.710;6.438;2023-08-17T09:10:53;7.53;;;2.05;;
55003;SDS011;40900;52.710;6.438;2023-08-17T09:13:19;10.65;;;2.35;;
55003;SDS011;40900;52.710;6.438;2023-08-17T09:15:45;6.30;;;1.63;;
55003;SDS011;40900;52.710;6.438;2023-08-17T09:18:11;7.07;;;1.73;;
55003;SDS011;40900;52.710;6.438;2023-08-17T09:20:41;8.50;;;2.10;;
55003;SDS011;40900;52.710;6.438;2023-08-17T09:23:16;5.05;;;1.77;;
55003;SDS011;40900;52.710;6.438;2023-08-17T09:25:47;6.60;;;2.03;;
55003;SDS011;40900;52.710;6.438;2023-08-17T09:28:15;5.65;;;1.80;;
55003;SDS011;40900;52.710;6.438;2023-08-17T09:30:56;7.75;;;1.90;;
55003;SDS011;40900;52.710;6.438;2023-08-17T09:33:27;9.07;;;2.13;;
55003;SDS011;40900;52.710;6.438;2023-08-17T09:35:55;6.43;;;1.65;;
55003;SDS011;40900;52.710;6.438;2023-08-17T09:38:21;6.13;;;1.98;;
55003;SDS011;40900;52.710;6.438;2023-08-17T09:40:47;10.93;;;2.05;;
55003;SDS011;40900;52.710;6.438;2023-08-17T09:43:13;4.57;;;1.60;;
55003;SDS011;40900;52.710;6.438;2023-08-17T09:45:40;6.00;;;1.92;;
55003;SDS011;40900;52.710;6.438;2023-08-17T09:48:07;7.97;;;2.05;;
55003;SDS011;40900;52.710;6.438;2023-08-17T09:50:33;9.93;;;2.50;;
55003;SDS011;40900;52.710;6.438;2023-08-17T09:53:01;5.35;;;2.40;;
55003;SDS011;40900;52.710;6.438;2023-08-17T09:55:30;4.88;;;1.83;;
55003;SDS011;40900;52.710;6.438;2023-08-17T09:58:00;6.97;;;2.10;;
55003;SDS011;40900;52.710;6.438;2023-08-17T10:00:26;3.50;;;1.85;;
55003;SDS011;40900;52.710;6.438;2023-08-17T10:02:52;5.78;;;2.03;;
55003;SDS011;40900;52.710;6.438;2023-08-17T10:05:19;5.22;;;2.40;;
55003;SDS011;40900;52.710;6.438;2023-08-17T10:07:51;5.60;;;1.90;;
55003;SDS011;40900;52.710;6.438;2023-08-17T10:10:25;6.70;;;2.13;;
55003;SDS011;40900;52.710;6.438;2023-08-17T10:15:41;7.57;;;2.38;;
55003;SDS011;40900;52.710;6.438;2023-08-17T10:18:35;5.63;;;1.92;;
55003;SDS011;40900;52.710;6.438;2023-08-17T10:21:10;7.70;;;2.65;;
55003;SDS011;40900;52.710;6.438;2023-08-17T10:23:42;5.00;;;2.00;;
55003;SDS011;40900;52.710;6.438;2023-08-17T10:26:10;7.95;;;1.98;;
55003;SDS011;40900;52.710;6.438;2023-08-17T10:28:36;7.43;;;2.20;;
55003;SDS011;40900;52.710;6.438;2023-08-17T10:31:04;5.70;;;2.03;;
55003;SDS011;40900;52.710;6.438;2023-08-17T10:33:32;6.22;;;2.42;;
55003;SDS011;40900;52.710;6.438;2023-08-17T10:35:59;5.40;;;2.20;;
55003;SDS011;40900;52.710;6.438;2023-08-17T10:38:25;6.20;;;2.30;;
55003;SDS011;40900;52.710;6.438;2023-08-17T10:41:10;7.03;;;2.20;;
55003;SDS011;40900;52.710;6.438;2023-08-17T10:43:53;4.35;;;2.15;;
55003;SDS011;40900;52.710;6.438;2023-08-17T10:49:03;6.63;;;2.42;;
55003;SDS011;40900;52.710;6.438;2023-08-17T10:51:30;4.53;;;2.38;;
55003;SDS011;40900;52.710;6.438;2023-08-17T10:53:58;5.40;;;2.72;;
55003;SDS011;40900;52.710;6.438;2023-08-17T10:56:26;9.48;;;2.60;;
55003;SDS011;40900;52.710;6.438;2023-08-17T10:58:53;9.32;;;2.40;;
55003;SDS011;40900;52.710;6.438;2023-08-17T11:01:30;10.10;;;3.20;;
55003;SDS011;40900;52.710;6.438;2023-08-17T11:04:11;4.93;;;2.40;;
55003;SDS011;40900;52.710;6.438;2023-08-17T11:06:42;8.02;;;2.45;;
55003;SDS011;40900;52.710;6.438;2023-08-17T11:09:09;5.60;;;2.25;;
55003;SDS011;40900;52.710;6.438;2023-08-17T11:11:35;6.32;;;2.60;;
55003;SDS011;40900;52.710;6.438;2023-08-17T11:14:00;6.65;;;2.50;;
55003;SDS011;40900;52.710;6.438;2023-08-17T11:16:26;6.82;;;2.45;;
55003;SDS011;40900;52.710;6.438;2023-08-17T11:18:52;4.38;;;1.98;;
55003;SDS011;40900;52.710;6.438;2023-08-17T11:21:20;7.35;;;2.25;;
55003;SDS011;40900;52.710;6.438;2023-08-17T11:23:46;9.02;;;2.33;;
55003;SDS011;40900;52.710;6.438;2023-08-17T11:26:16;5.70;;;2.35;;
55003;SDS011;40900;52.710;6.438;2023-08-17T11:28:43;6.07;;;2.50;;
55003;SDS011;40900;52.710;6.438;2023-08-17T11:31:10;9.50;;;2.42;;
55003;SDS011;40900;52.710;6.438;2023-08-17T11:33:38;4.60;;;2.42;;
55003;SDS011;40900;52.710;6.438;2023-08-17T11:36:05;5.53;;;2.80;;
55003;SDS011;40900;52.710;6.438;2023-08-17T11:38:33;4.82;;;2.30;;
55003;SDS011;40900;52.710;6.438;2023-08-17T11:41:00;10.05;;;2.90;;
55003;SDS011;40900;52.710;6.438;2023-08-17T11:43:28;5.68;;;2.63;;
55003;SDS011;40900;52.710;6.438;2023-08-17T11:45:54;7.22;;;2.50;;
55003;SDS011;40900;52.710;6.438;2023-08-17T11:48:21;6.10;;;2.85;;
55003;SDS011;40900;52.710;6.438;2023-08-17T11:50:48;5.70;;;2.50;;
55003;SDS011;40900;52.710;6.438;2023-08-17T11:53:14;6.70;;;2.58;;
55003;SDS011;40900;52.710;6.438;2023-08-17T11:55:40;5.97;;;2.30;;
55003;SDS011;40900;52.710;6.438;2023-08-17T11:58:06;8.70;;;2.60;;
55003;SDS011;40900;52.710;6.438;2023-08-17T12:00:36;8.98;;;2.38;;
55003;SDS011;40900;52.710;6.438;2023-08-17T12:03:04;8.18;;;2.75;;
55003;SDS011;40900;52.710;6.438;2023-08-17T12:05:31;6.25;;;2.70;;
55003;SDS011;40900;52.710;6.438;2023-08-17T12:07:58;6.53;;;2.60;;
55003;SDS011;40900;52.710;6.438;2023-08-17T12:10:28;7.30;;;2.50;;
55003;SDS011;40900;52.710;6.438;2023-08-17T12:12:57;4.90;;;2.20;;
55003;SDS011;40900;52.710;6.438;2023-08-17T12:15:25;8.85;;;2.75;;
55003;SDS011;40900;52.710;6.438;2023-08-17T12:17:59;7.82;;;2.72;;
55003;SDS011;40900;52.710;6.438;2023-08-17T12:20:25;4.18;;;2.58;;
55003;SDS011;40900;52.710;6.438;2023-08-17T12:22:52;6.32;;;2.60;;
55003;SDS011;40900;52.710;6.438;2023-08-17T12:25:20;5.68;;;3.10;;
55003;SDS011;40900;52.710;6.438;2023-08-17T12:27:49;6.00;;;3.03;;
55003;SDS011;40900;52.710;6.438;2023-08-17T12:30:25;7.05;;;3.67;;
55003;SDS011;40900;52.710;6.438;2023-08-17T12:32:57;5.13;;;2.72;;
55003;SDS011;40900;52.710;6.438;2023-08-17T12:35:26;5.70;;;2.85;;
55003;SDS011;40900;52.710;6.438;2023-08-17T12:37:52;5.90;;;3.00;;
55003;SDS011;40900;52.710;6.438;2023-08-17T12:40:19;5.82;;;2.95;;
55003;SDS011;40900;52.710;6.438;2023-08-17T12:42:45;5.60;;;3.30;;
55003;SDS011;40900;52.710;6.438;2023-08-17T12:45:11;7.47;;;3.20;;
55003;SDS011;40900;52.710;6.438;2023-08-17T12:47:37;5.07;;;2.70;;
55003;SDS011;40900;52.710;6.438;2023-08-17T12:50:04;4.97;;;2.78;;
55003;SDS011;40900;52.710;6.438;2023-08-17T12:52:30;7.60;;;3.13;;
55003;SDS011;40900;52.710;6.438;2023-08-17T12:54:56;6.47;;;3.15;;
55003;SDS011;40900;52.710;6.438;2023-08-17T12:57:22;5.32;;;3.45;;
55003;SDS011;40900;52.710;6.438;2023-08-17T12:59:48;5.60;;;3.30;;
55003;SDS011;40900;52.710;6.438;2023-08-17T13:02:13;8.32;;;3.70;;
55003;SDS011;40900;52.710;6.438;2023-08-17T13:04:39;4.65;;;2.90;;
55003;SDS011;40900;52.710;6.438;2023-08-17T13:07:06;6.75;;;3.58;;
55003;SDS011;40900;52.710;6.438;2023-08-17T13:09:32;7.80;;;3.17;;
55003;SDS011;40900;52.710;6.438;2023-08-17T13:11:58;4.43;;;3.10;;
55003;SDS011;40900;52.710;6.438;2023-08-17T13:14:24;9.13;;;3.75;;
55003;SDS011;40900;52.710;6.438;2023-08-17T13:16:50;5.93;;;3.40;;
55003;SDS011;40900;52.710;6.438;2023-08-17T13:19:17;7.25;;;3.47;;
55003;SDS011;40900;52.710;6.438;2023-08-17T13:21:43;6.85;;;3.58;;
55003;SDS011;40900;52.710;6.438;2023-08-17T13:24:09;6.68;;;3.65;;
55003;SDS011;40900;52.710;6.438;2023-08-17T13:26:35;5.97;;;3.38;;
55003;SDS011;40900;52.710;6.438;2023-08-17T13:29:01;6.45;;;3.47;;
55003;SDS011;40900;52.710;6.438;2023-08-17T13:31:27;6.28;;;3.58;;
55003;SDS011;40900;52.710;6.438;2023-08-17T13:33:54;6.47;;;3.30;;
55003;SDS011;40900;52.710;6.438;2023-08-17T13:36:20;5.68;;;3.08;;
55003;SDS011;40900;52.710;6.438;2023-08-17T13:38:46;6.90;;;3.05;;
55003;SDS011;40900;52.710;6.438;2023-08-17T13:41:12;7.63;;;3.67;;
55003;SDS011;40900;52.710;6.438;2023-08-17T13:43:37;6.78;;;3.80;;
55003;SDS011;40900;52.710;6.438;2023-08-17T13:46:04;8.05;;;3.80;;
55003;SDS011;40900;52.710;6.438;2023-08-17T13:48:30;6.85;;;3.85;;
55003;SDS011;40900;52.710;6.438;2023-08-17T13:50:55;8.10;;;4.57;;
55003;SDS011;40900;52.710;6.438;2023-08-17T13:53:21;11.48;;;4.30;;
55003;SDS011;40900;52.710;6.438;2023-08-17T13:55:47;7.70;;;4.38;;
55003;SDS011;40900;52.710;6.438;2023-08-17T13:58:13;8.43;;;3.90;;
55003;SDS011;40900;52.710;6.438;2023-08-17T14:00:40;5.22;;;4.05;;
55003;SDS011;40900;52.710;6.438;2023-08-17T14:03:06;7.90;;;3.67;;
55003;SDS011;40900;52.710;6.438;2023-08-17T14:05:32;5.75;;;3.67;;
55003;SDS011;40900;52.710;6.438;2023-08-17T14:07:58;5.50;;;3.45;;
55003;SDS011;40900;52.710;6.438;2023-08-17T14:10:24;6.07;;;3.58;;
55003;SDS011;40900;52.710;6.438;2023-08-17T14:12:50;7.30;;;3.70;;
55003;SDS011;40900;52.710;6.438;2023-08-17T14:15:15;7.43;;;3.15;;
55003;SDS011;40900;52.710;6.438;2023-08-17T14:17:41;7.50;;;4.05;;
55003;SDS011;40900;52.710;6.438;2023-08-17T14:20:07;5.45;;;3.72;;
55003;SDS011;40900;52.710;6.438;2023-08-17T14:22:33;6.15;;;4.32;;
55003;SDS011;40900;52.710;6.438;2023-08-17T14:24:59;6.13;;;3.88;;
55003;SDS011;40900;52.710;6.438;2023-08-17T14:27:25;5.60;;;3.78;;
55003;SDS011;40900;52.710;6.438;2023-08-17T14:29:50;7.50;;;3.65;;
55003;SDS011;40900;52.710;6.438;2023-08-17T14:32:16;7.00;;;3.50;;
55003;SDS011;40900;52.710;6.438;2023-08-17T14:34:42;7.65;;;4.28;;
55003;SDS011;40900;52.710;6.438;2023-08-17T14:37:08;8.15;;;4.07;;
55003;SDS011;40900;52.710;6.438;2023-08-17T14:39:33;6.60;;;3.65;;
55003;SDS011;40900;52.710;6.438;2023-08-17T14:41:59;8.90;;;4.07;;
55003;SDS011;40900;52.710;6.438;2023-08-17T14:44:25;8.68;;;3.75;;
55003;SDS011;40900;52.710;6.438;2023-08-17T14:46:51;7.95;;;3.88;;
55003;SDS011;40900;52.710;6.438;2023-08-17T14:49:17;6.95;;;3.90;;
55003;SDS011;40900;52.710;6.438;2023-08-17T14:51:42;5.38;;;3.90;;